createdAt,value
2023-04-10T00:00:57.149Z,46.78
2023-04-10T00:03:25.526Z,45.33
2023-04-10T00:05:54.766Z,45.25
2023-04-10T00:08:24.194Z,45.35
2023-04-10T00:10:53.265Z,44.10
2023-04-10T00:13:21.429Z,42.72
2023-04-10T00:15:49.638Z,42.78
2023-04-10T00:18:17.366Z,42.40
2023-04-10T00:20:45.102Z,43.55
2023-04-10T00:23:12.880Z,43.38
2023-04-10T00:25:42.011Z,43.15
2023-04-10T00:28:09.739Z,42.03
2023-04-10T00:30:37.389Z,42.67
2023-04-10T00:33:05.833Z,41.30
2023-04-10T00:35:34.443Z,43.10
2023-04-10T00:38:02.165Z,42.45
2023-04-10T00:40:30.409Z,41.78
2023-04-10T00:42:59.570Z,42.60
2023-04-10T00:45:27.502Z,42.30
2023-04-10T00:47:55.770Z,42.17
2023-04-10T00:50:23.723Z,41.67
2023-04-10T00:52:51.800Z,42.72
2023-04-10T00:55:19.575Z,43.10
2023-04-10T00:57:47.746Z,43.05
2023-04-10T01:00:17.851Z,44.85
2023-04-10T01:02:45.872Z,41.45
2023-04-10T01:05:14.217Z,43.08
2023-04-10T01:07:59.062Z,41.53
2023-04-10T01:10:30.912Z,40.90
2023-04-10T01:13:05.729Z,41.42
2023-04-10T01:15:39.873Z,38.92
2023-04-10T01:18:13.997Z,40.17
2023-04-10T01:20:43.128Z,39.30
2023-04-10T01:23:44.159Z,39.28
2023-04-10T01:26:12.819Z,39.42
2023-04-10T01:28:50.602Z,36.87
2023-04-10T01:31:20.830Z,36.50
2023-04-10T01:33:52.193Z,36.57
2023-04-10T01:36:23.124Z,35.47
2023-04-10T01:38:52.134Z,36.80
2023-04-10T01:41:20.840Z,34.95
2023-04-10T01:43:52.047Z,35.30
2023-04-10T01:46:20.582Z,35.10
2023-04-10T01:48:48.609Z,35.78
2023-04-10T01:51:16.592Z,34.65
2023-04-10T01:53:45.384Z,34.13
2023-04-10T01:56:13.934Z,33.85
2023-04-10T01:58:41.852Z,34.00
2023-04-10T02:01:19.353Z,33.67
2023-04-10T02:03:54.428Z,34.50
2023-04-10T02:06:27.735Z,34.13
2023-04-10T02:08:58.550Z,33.80
2023-04-10T02:11:33.144Z,33.88
2023-04-10T02:14:03.309Z,34.05
2023-04-10T02:16:33.151Z,33.95
2023-04-10T02:19:02.047Z,33.20
2023-04-10T02:21:29.974Z,33.03
2023-04-10T02:23:58.558Z,32.90
2023-04-10T02:26:26.268Z,31.80
2023-04-10T02:28:54.025Z,32.33
2023-04-10T02:31:21.775Z,32.08
2023-04-10T02:33:51.055Z,32.58
2023-04-10T02:36:18.829Z,32.47
2023-04-10T02:38:46.552Z,30.90
2023-04-10T02:41:14.285Z,31.65
2023-04-10T02:43:41.965Z,31.37
2023-04-10T02:46:09.604Z,31.75
2023-04-10T02:48:37.299Z,32.03
2023-04-10T02:51:07.550Z,32.33
2023-04-10T02:53:35.454Z,32.67
2023-04-10T02:56:03.580Z,32.50
2023-04-10T02:58:31.644Z,33.05
2023-04-10T03:00:59.616Z,33.65
2023-04-10T03:05:55.055Z,34.50
2023-04-10T03:08:24.181Z,33.90
2023-04-10T03:10:51.866Z,34.15
2023-04-10T03:13:19.490Z,34.72
2023-04-10T03:15:47.796Z,34.60
2023-04-10T03:18:15.601Z,34.65
2023-04-10T03:20:45.118Z,33.95
2023-04-10T03:23:13.120Z,35.27
2023-04-10T03:25:42.368Z,34.65
2023-04-10T03:28:10.346Z,33.22
2023-04-10T03:30:38.093Z,33.20
2023-04-10T03:33:05.886Z,33.75
2023-04-10T03:35:33.590Z,33.93
2023-04-10T03:38:01.321Z,34.65
2023-04-10T03:40:29.038Z,33.58
2023-04-10T03:42:58.252Z,33.28
2023-04-10T03:45:25.926Z,33.30
2023-04-10T03:47:53.784Z,33.67
2023-04-10T03:50:21.702Z,32.90
2023-04-10T03:52:49.696Z,33.43
2023-04-10T03:55:19.011Z,33.17
2023-04-10T03:57:46.925Z,33.77
2023-04-10T04:00:16.982Z,33.92
2023-04-10T04:02:44.921Z,34.13
2023-04-10T04:05:13.052Z,34.70
2023-04-10T04:07:40.769Z,34.10
2023-04-10T04:10:09.327Z,34.85
2023-04-10T04:12:37.067Z,34.00
2023-04-10T04:15:05.425Z,33.75
2023-04-10T04:17:34.580Z,35.17
2023-04-10T04:20:02.299Z,34.72
2023-04-10T04:22:29.936Z,35.08
2023-04-10T04:24:57.620Z,35.00
2023-04-10T04:27:25.364Z,33.92
2023-04-10T04:29:53.006Z,34.30
2023-04-10T04:32:20.849Z,35.50
2023-04-10T04:34:49.890Z,36.93
2023-04-10T04:37:17.558Z,37.85
2023-04-10T04:39:45.338Z,40.70
2023-04-10T04:42:13.036Z,40.90
2023-04-10T04:44:40.706Z,40.00
2023-04-10T04:47:08.375Z,41.67
2023-04-10T04:49:36.010Z,41.08
2023-04-10T04:52:05.631Z,42.33
2023-04-10T04:54:33.311Z,42.05
2023-04-10T04:57:01.629Z,41.97
2023-04-10T04:59:29.365Z,42.17
2023-04-10T05:01:57.182Z,44.03
2023-04-10T05:04:25.147Z,43.23
2023-04-10T05:06:52.893Z,43.72
2023-04-10T05:09:21.967Z,43.58
2023-04-10T05:11:50.523Z,44.00
2023-04-10T05:14:18.280Z,44.45
2023-04-10T05:16:45.989Z,44.25
2023-04-10T05:19:13.648Z,44.50
2023-04-10T05:21:41.313Z,43.45
2023-04-10T05:24:09.401Z,43.95
2023-04-10T05:26:38.454Z,43.50
2023-04-10T05:29:06.174Z,43.73
2023-04-10T05:31:34.039Z,43.00
2023-04-10T05:34:01.869Z,40.97
2023-04-10T05:36:29.557Z,41.25
2023-04-10T05:38:57.207Z,39.70
2023-04-10T05:41:24.951Z,39.70
2023-04-10T05:43:54.019Z,39.50
2023-04-10T05:46:22.414Z,39.55
2023-04-10T05:48:50.098Z,39.20
2023-04-10T05:51:17.812Z,37.47
2023-04-10T05:53:45.697Z,38.05
2023-04-10T05:56:13.340Z,35.50
2023-04-10T05:58:41.047Z,36.53
2023-04-10T06:01:11.399Z,35.10
2023-04-10T06:03:39.118Z,33.42
2023-04-10T06:06:08.797Z,34.55
2023-04-10T06:08:36.542Z,33.50
2023-04-10T06:11:04.605Z,31.63
2023-04-10T06:13:32.476Z,32.17
2023-04-10T06:16:00.982Z,30.52
2023-04-10T06:18:30.324Z,29.65
2023-04-10T06:21:01.693Z,28.67
2023-04-10T06:23:29.562Z,29.13
2023-04-10T06:25:57.640Z,27.08
2023-04-10T06:28:25.398Z,26.42
2023-04-10T06:30:53.133Z,26.20
2023-04-10T06:33:20.956Z,26.20
2023-04-10T06:35:50.823Z,25.63
2023-04-10T06:38:18.606Z,24.95
2023-04-10T06:40:46.326Z,24.47
2023-04-10T06:43:14.154Z,24.40
2023-04-10T06:45:41.783Z,23.10
2023-04-10T06:48:09.466Z,23.70
2023-04-10T06:50:37.177Z,22.48
2023-04-10T06:53:06.267Z,21.23
2023-04-10T06:55:34.027Z,19.70
2023-04-10T07:00:29.731Z,18.17
2023-04-10T07:02:57.613Z,18.63
2023-04-10T07:05:25.410Z,18.45
2023-04-10T07:07:53.321Z,17.27
2023-04-10T07:10:22.444Z,17.65
2023-04-10T07:12:50.330Z,15.63
2023-04-10T07:15:18.133Z,16.57
2023-04-10T07:17:46.009Z,14.25
2023-04-10T07:20:13.942Z,14.75
2023-04-10T07:22:41.627Z,14.25
2023-04-10T07:25:10.412Z,14.23
2023-04-10T07:27:39.430Z,13.40
2023-04-10T07:30:08.329Z,12.77
2023-04-10T07:32:37.673Z,13.00
2023-04-10T07:35:06.212Z,12.65
2023-04-10T07:37:33.961Z,12.25
2023-04-10T07:40:02.461Z,11.85
2023-04-10T07:42:31.574Z,11.23
2023-04-10T07:45:00.615Z,11.88
2023-04-10T07:47:28.362Z,12.15
2023-04-10T07:49:56.672Z,11.75
2023-04-10T07:52:24.465Z,11.23
2023-04-10T07:54:52.222Z,11.55
2023-04-10T07:57:19.924Z,12.07
2023-04-10T07:59:47.586Z,11.43
2023-04-10T08:02:16.843Z,11.15
2023-04-10T08:04:44.746Z,10.83
2023-04-10T08:07:12.627Z,11.38
2023-04-10T08:09:40.328Z,11.38
2023-04-10T08:12:07.983Z,11.90
2023-04-10T08:14:35.794Z,11.07
2023-04-10T08:17:03.527Z,10.93
2023-04-10T08:19:32.665Z,11.63
2023-04-10T08:22:00.297Z,11.52
2023-04-10T08:24:27.926Z,10.60
2023-04-10T08:26:55.543Z,10.65
2023-04-10T08:31:51.886Z,10.27
2023-04-10T08:34:20.382Z,10.07
2023-04-10T08:36:49.643Z,10.40
2023-04-10T08:39:17.330Z,9.52
2023-04-10T08:41:45.024Z,9.07
2023-04-10T08:44:13.106Z,8.52
2023-04-10T08:46:43.925Z,8.73
2023-04-10T08:49:12.706Z,8.50
2023-04-10T08:51:42.908Z,8.75
2023-04-10T08:54:14.983Z,8.25
2023-04-10T08:56:44.019Z,7.93
2023-04-10T08:59:11.850Z,7.63
2023-04-10T09:01:41.180Z,7.45
2023-04-10T09:04:09.054Z,7.03
2023-04-10T09:06:36.760Z,7.10
2023-04-10T09:09:04.691Z,6.10
2023-04-10T09:12:01.394Z,5.90
2023-04-10T09:14:30.540Z,5.80
2023-04-10T09:17:13.217Z,5.93
2023-04-10T09:19:41.088Z,5.85
2023-04-10T09:22:09.017Z,5.33
2023-04-10T09:24:38.215Z,5.40
2023-04-10T09:27:07.681Z,5.47
2023-04-10T09:29:44.571Z,4.97
2023-04-10T09:32:12.782Z,5.63
2023-04-10T09:35:05.837Z,4.75
2023-04-10T09:37:33.762Z,4.95
2023-04-10T09:40:01.854Z,4.00
2023-04-10T09:42:36.416Z,4.20
2023-04-10T09:45:04.980Z,4.35
2023-04-10T09:47:33.487Z,4.07
2023-04-10T09:50:01.954Z,4.00
2023-04-10T09:52:30.713Z,3.97
2023-04-10T09:55:00.307Z,3.95
2023-04-10T09:57:29.560Z,4.22
2023-04-10T10:00:02.212Z,4.30
2023-04-10T10:02:31.395Z,3.88
2023-04-10T10:05:01.490Z,4.07
2023-04-10T10:07:30.860Z,3.97
2023-04-10T10:09:59.245Z,3.95
2023-04-10T10:12:30.990Z,3.80
2023-04-10T10:15:03.204Z,3.90
2023-04-10T10:17:39.466Z,3.83
2023-04-10T10:20:09.935Z,3.80
2023-04-10T10:22:38.030Z,3.33
2023-04-10T10:25:06.345Z,3.70
2023-04-10T10:27:38.336Z,3.58
2023-04-10T10:30:25.214Z,3.30
2023-04-10T10:32:57.494Z,3.47
2023-04-10T10:35:27.965Z,3.58
2023-04-10T10:37:57.669Z,3.45
2023-04-10T10:40:29.098Z,3.10
2023-04-10T10:43:02.702Z,3.40
2023-04-10T10:45:37.619Z,3.25
2023-04-10T10:48:06.887Z,3.20
2023-04-10T10:50:53.120Z,3.15
2023-04-10T10:53:33.829Z,2.90
2023-04-10T10:56:34.424Z,3.47
2023-04-10T10:59:02.741Z,3.40
2023-04-10T11:01:31.961Z,3.30
2023-04-10T11:04:01.265Z,3.20
2023-04-10T11:06:54.640Z,4.15
2023-04-10T11:09:45.890Z,3.40
2023-04-10T11:12:13.660Z,3.42
2023-04-10T11:14:42.132Z,3.83
2023-04-10T11:17:11.621Z,3.95
2023-04-10T11:19:59.217Z,3.83
2023-04-10T11:22:27.792Z,3.75
2023-04-10T11:24:57.663Z,3.78
2023-04-10T11:27:52.910Z,4.00
2023-04-10T11:30:28.084Z,3.35
2023-04-10T11:32:57.589Z,3.58
2023-04-10T11:35:26.858Z,3.40
2023-04-10T11:38:09.674Z,3.20
2023-04-10T11:40:37.381Z,3.75
2023-04-10T11:43:15.079Z,3.83
2023-04-10T11:45:42.760Z,3.40
2023-04-10T11:48:11.872Z,3.08
2023-04-10T11:50:39.552Z,3.40
2023-04-10T11:53:19.643Z,2.72
2023-04-10T11:55:47.770Z,3.00
2023-04-10T11:58:26.132Z,3.15
2023-04-10T12:00:58.650Z,3.35
2023-04-10T12:03:35.728Z,3.00
2023-04-10T12:06:06.406Z,2.92
2023-04-10T12:08:34.619Z,2.72
2023-04-10T12:11:02.416Z,2.35
2023-04-10T12:13:30.808Z,2.50
2023-04-10T12:16:04.717Z,2.40
2023-04-10T12:18:34.268Z,2.50
2023-04-10T12:21:02.269Z,2.50
2023-04-10T12:23:30.890Z,2.42
2023-04-10T12:26:13.624Z,2.60
2023-04-10T12:28:42.150Z,2.00
2023-04-10T12:31:10.457Z,1.75
2023-04-10T12:33:40.592Z,2.17
2023-04-10T12:36:21.237Z,2.05
2023-04-10T12:38:48.983Z,2.20
2023-04-10T12:41:23.453Z,2.25
2023-04-10T12:43:52.482Z,2.63
2023-04-10T12:46:29.132Z,2.38
2023-04-10T12:48:58.281Z,2.60
2023-04-10T12:51:46.768Z,2.63
2023-04-10T12:54:28.996Z,2.13
2023-04-10T12:56:57.717Z,1.93
2023-04-10T12:59:26.451Z,2.50
2023-04-10T13:01:54.447Z,2.43
2023-04-10T13:04:24.253Z,2.33
2023-04-10T13:06:53.175Z,2.40
2023-04-10T13:09:21.281Z,2.50
2023-04-10T13:11:51.029Z,2.63
2023-04-10T13:14:19.747Z,2.83
2023-04-10T13:16:47.530Z,2.60
2023-04-10T13:19:15.220Z,2.70
2023-04-10T13:21:44.367Z,2.42
2023-04-10T13:24:12.589Z,2.40
2023-04-10T13:26:40.869Z,2.80
2023-04-10T13:29:08.494Z,2.67
2023-04-10T13:31:36.247Z,2.13
2023-04-10T13:34:03.953Z,2.45
2023-04-10T13:36:32.607Z,2.57
2023-04-10T13:39:01.791Z,2.58
2023-04-10T13:41:29.372Z,2.20
2023-04-10T13:43:57.169Z,2.13
2023-04-10T13:46:25.550Z,2.50
2023-04-10T13:48:53.297Z,2.33
2023-04-10T13:51:20.957Z,2.50
2023-04-10T13:53:48.580Z,2.25
2023-04-10T13:56:17.624Z,2.00
2023-04-10T13:58:46.817Z,2.28
2023-04-10T14:01:14.576Z,2.10
2023-04-10T14:03:42.439Z,2.03
2023-04-10T14:06:10.333Z,2.50
2023-04-10T14:08:38.073Z,2.15
2023-04-10T14:11:06.034Z,2.15
2023-04-10T14:13:35.059Z,2.08
2023-04-10T14:16:04.074Z,2.35
2023-04-10T14:18:31.777Z,2.27
2023-04-10T14:20:59.432Z,2.05
2023-04-10T14:23:27.155Z,2.15
2023-04-10T14:25:54.908Z,2.10
2023-04-10T14:28:22.612Z,3.90
2023-04-10T14:30:52.600Z,2.72
2023-04-10T14:33:20.625Z,1.85
2023-04-10T14:35:48.866Z,2.25
2023-04-10T14:38:16.829Z,2.47
2023-04-10T14:40:45.776Z,4.20
2023-04-10T14:43:13.444Z,6.68
2023-04-10T14:45:41.111Z,4.45
2023-04-10T14:48:11.051Z,4.10
2023-04-10T14:50:38.900Z,1.95
2023-04-10T14:53:09.565Z,1.98
2023-04-10T14:55:37.828Z,1.65
2023-04-10T14:58:06.725Z,1.83
2023-04-10T15:00:34.604Z,1.95
2023-04-10T15:03:02.517Z,1.52
2023-04-10T15:05:31.618Z,1.60
2023-04-10T15:07:59.369Z,1.48
2023-04-10T15:10:27.112Z,1.70
2023-04-10T15:12:54.747Z,1.85
2023-04-10T15:15:22.533Z,1.83
2023-04-10T15:17:50.545Z,1.75
2023-04-10T15:20:18.368Z,1.80
2023-04-10T15:22:48.227Z,1.85
2023-04-10T15:25:16.168Z,1.63
2023-04-10T15:27:43.868Z,2.00
2023-04-10T15:30:12.643Z,2.35
2023-04-10T15:32:40.348Z,4.47
2023-04-10T15:35:09.347Z,1.95
2023-04-10T15:37:37.580Z,2.30
2023-04-10T15:40:07.761Z,4.97
2023-04-10T15:42:35.836Z,4.20
2023-04-10T15:45:03.779Z,4.27
2023-04-10T15:47:31.455Z,2.00
2023-04-10T15:49:59.252Z,2.00
2023-04-10T15:52:29.213Z,1.90
2023-04-10T15:54:56.904Z,2.10
2023-04-10T15:57:26.057Z,1.90
2023-04-10T15:59:53.838Z,1.70
2023-04-10T16:02:21.720Z,1.90
2023-04-10T16:04:49.795Z,1.80
2023-04-10T16:07:17.697Z,2.10
2023-04-10T16:09:46.182Z,2.10
2023-04-10T16:12:13.990Z,1.88
2023-04-10T16:14:43.054Z,1.60
2023-04-10T16:17:10.804Z,2.00
2023-04-10T16:19:38.513Z,1.80
2023-04-10T16:22:06.272Z,2.50
2023-04-10T16:24:33.908Z,2.30
2023-04-10T16:27:02.401Z,2.20
2023-04-10T16:29:30.116Z,1.50
2023-04-10T16:31:59.228Z,2.15
2023-04-10T16:34:26.943Z,1.88
2023-04-10T16:36:54.623Z,2.50
2023-04-10T16:39:22.371Z,3.10
2023-04-10T16:41:50.071Z,3.70
2023-04-10T16:44:17.732Z,2.90
2023-04-10T16:46:45.532Z,2.97
2023-04-10T16:49:14.792Z,2.85
2023-04-10T16:51:42.463Z,2.88
2023-04-10T16:54:10.108Z,2.67
2023-04-10T16:56:37.804Z,3.88
2023-04-10T16:59:05.538Z,3.28
2023-04-10T17:01:35.127Z,2.92
2023-04-10T17:04:02.920Z,3.38
2023-04-10T17:06:32.450Z,3.42
2023-04-10T17:09:00.300Z,3.67
2023-04-10T17:11:28.350Z,3.45
2023-04-10T17:13:56.090Z,5.65
2023-04-10T17:16:23.839Z,4.30
2023-04-10T17:18:51.596Z,4.32
2023-04-10T17:21:19.202Z,3.88
2023-04-10T17:23:48.819Z,9.00
2023-04-10T17:26:17.557Z,2.88
2023-04-10T17:28:46.496Z,4.32
2023-04-10T17:31:14.806Z,10.47
2023-04-10T17:33:42.900Z,6.10
2023-04-10T17:36:12.270Z,7.80
2023-04-10T17:38:41.027Z,4.53
2023-04-10T17:41:10.712Z,2.80
2023-04-10T17:43:38.383Z,2.40
2023-04-10T17:46:06.716Z,2.60
2023-04-10T17:48:34.633Z,2.10
2023-04-10T17:51:06.245Z,3.60
2023-04-10T17:53:33.971Z,2.60
2023-04-10T17:56:01.665Z,4.68
2023-04-10T17:58:30.836Z,3.78
2023-04-10T18:00:58.520Z,4.10
2023-04-10T18:03:26.367Z,4.10
2023-04-10T18:05:54.197Z,4.07
2023-04-10T18:08:21.871Z,3.40
2023-04-10T18:10:49.607Z,3.40
2023-04-10T18:13:17.264Z,3.25
2023-04-10T18:15:46.379Z,3.10
2023-04-10T18:18:14.310Z,4.10
2023-04-10T18:20:42.031Z,3.38
2023-04-10T18:23:09.746Z,3.20
2023-04-10T18:25:37.499Z,4.20
2023-04-10T18:28:14.502Z,4.10
2023-04-10T18:30:43.713Z,4.82
2023-04-10T18:33:14.080Z,3.83
2023-04-10T18:35:42.079Z,4.13
2023-04-10T18:38:09.815Z,3.77
2023-04-10T18:40:37.898Z,3.60
2023-04-10T18:43:05.637Z,3.42
2023-04-10T18:45:34.392Z,4.07
2023-04-10T18:48:02.410Z,4.07
2023-04-10T18:50:31.591Z,3.88
2023-04-10T18:52:59.259Z,3.70
2023-04-10T18:55:27.050Z,3.33
2023-04-10T18:57:54.767Z,3.33
2023-04-10T19:00:22.817Z,2.63
2023-04-10T19:02:50.767Z,3.47
2023-04-10T19:05:18.533Z,6.95
2023-04-10T19:08:00.556Z,3.40
2023-04-10T19:10:31.199Z,3.65
2023-04-10T19:12:58.869Z,2.95
2023-04-10T19:15:26.529Z,3.22
2023-04-10T19:17:54.700Z,3.83
2023-04-10T19:20:49.931Z,3.55
2023-04-10T19:23:12.950Z,5.35
2023-04-10T19:25:41.042Z,4.47
2023-04-10T19:28:08.777Z,3.75
2023-04-10T19:30:36.503Z,3.90
2023-04-10T19:33:04.213Z,4.00
2023-04-10T19:35:32.025Z,4.17
2023-04-10T19:37:59.809Z,3.90
2023-04-10T19:40:31.171Z,4.30
2023-04-10T19:43:00.446Z,3.92
2023-04-10T19:45:29.283Z,4.28
2023-04-10T19:47:57.638Z,4.18
2023-04-10T19:50:25.418Z,4.18
2023-04-10T19:52:53.129Z,4.65
2023-04-10T19:55:21.087Z,4.72
2023-04-10T19:57:50.531Z,4.68
2023-04-10T20:00:19.049Z,4.72
2023-04-10T20:02:46.816Z,4.70
2023-04-10T20:05:14.815Z,5.00
2023-04-10T20:07:42.577Z,4.32
2023-04-10T20:10:10.757Z,4.60
2023-04-10T20:12:38.502Z,4.05
2023-04-10T20:15:09.221Z,3.88
2023-04-10T20:17:38.575Z,4.55
2023-04-10T20:20:07.354Z,3.97
2023-04-10T20:22:35.016Z,4.47
2023-04-10T20:25:02.908Z,4.27
2023-04-10T20:27:30.658Z,4.72
2023-04-10T20:29:58.337Z,4.60
2023-04-10T20:32:27.585Z,4.47
2023-04-10T20:34:55.248Z,3.95
2023-04-10T20:37:22.976Z,4.82
2023-04-10T20:39:51.830Z,4.38
2023-04-10T20:42:19.556Z,4.53
2023-04-10T20:44:47.263Z,4.07
2023-04-10T20:47:14.980Z,4.43
2023-04-10T20:49:44.184Z,4.35
2023-04-10T20:52:11.965Z,4.20
2023-04-10T20:54:39.704Z,3.60
2023-04-10T20:57:07.389Z,3.67
2023-04-10T20:59:36.008Z,3.30
2023-04-10T21:02:03.925Z,3.58
2023-04-10T21:04:32.586Z,3.63
2023-04-10T21:07:01.659Z,3.50
2023-04-10T21:09:29.462Z,3.78
2023-04-10T21:11:57.726Z,3.50
2023-04-10T21:14:25.432Z,3.60
2023-04-10T21:16:53.250Z,3.35
2023-04-10T21:19:21.032Z,3.40
2023-04-10T21:21:48.756Z,3.53
2023-04-10T21:24:17.922Z,3.30
2023-04-10T21:26:45.770Z,3.10
2023-04-10T21:29:13.646Z,2.72
2023-04-10T21:31:41.377Z,3.17
2023-04-10T21:34:09.120Z,2.88
2023-04-10T21:36:36.784Z,3.17
2023-04-10T21:39:08.892Z,3.08
2023-04-10T21:41:38.236Z,2.47
2023-04-10T21:44:06.242Z,2.65
2023-04-10T21:46:34.480Z,2.60
2023-04-10T21:49:02.424Z,2.30
2023-04-10T21:51:30.159Z,1.97
2023-04-10T21:53:57.913Z,2.00
2023-04-10T21:56:25.872Z,2.70
2023-04-10T21:58:55.227Z,2.58
2023-04-10T22:01:23.038Z,2.05
2023-04-10T22:03:50.868Z,2.00
2023-04-10T22:06:18.661Z,1.92
2023-04-10T22:08:46.900Z,1.90
2023-04-10T22:11:14.548Z,2.20
2023-04-10T22:13:42.171Z,1.80
2023-04-10T22:16:11.387Z,1.83
2023-04-10T22:18:39.155Z,2.00
2023-04-10T22:21:07.765Z,2.25
2023-04-10T22:23:35.497Z,2.25
2023-04-10T22:26:03.136Z,2.30
2023-04-10T22:28:30.826Z,2.13
2023-04-10T22:30:58.661Z,2.40
2023-04-10T22:33:28.028Z,2.40
2023-04-10T22:35:55.731Z,2.55
2023-04-10T22:38:23.530Z,2.22
2023-04-10T22:40:51.267Z,2.15
2023-04-10T22:43:19.062Z,2.00
2023-04-10T22:45:46.795Z,2.00
2023-04-10T22:48:14.513Z,1.90
2023-04-10T22:50:43.567Z,2.00
2023-04-10T22:53:12.094Z,1.73
2023-04-10T22:55:40.005Z,1.63
2023-04-10T22:58:08.089Z,1.95
2023-04-10T23:00:35.751Z,1.75
2023-04-10T23:03:03.618Z,1.95
2023-04-10T23:05:32.928Z,1.98
2023-04-10T23:08:02.153Z,2.05
2023-04-10T23:10:29.864Z,2.25
2023-04-10T23:12:57.461Z,2.47
2023-04-10T23:15:25.159Z,2.22
2023-04-10T23:17:52.892Z,2.17
2023-04-10T23:20:20.856Z,2.42
2023-04-10T23:22:48.579Z,2.30
2023-04-10T23:25:17.733Z,2.43
2023-04-10T23:27:45.476Z,2.40
2023-04-10T23:30:13.322Z,2.65
2023-04-10T23:32:41.038Z,2.40
2023-04-10T23:35:09.253Z,2.70
2023-04-10T23:37:36.987Z,2.70
2023-04-10T23:40:05.125Z,3.67
2023-04-10T23:42:34.263Z,2.95
2023-04-10T23:45:01.917Z,2.63
2023-04-10T23:47:29.701Z,2.63
2023-04-10T23:49:57.406Z,2.70
2023-04-10T23:52:25.238Z,2.45
2023-04-10T23:54:52.934Z,3.22
2023-04-10T23:57:20.703Z,3.30
2023-04-10T23:59:49.983Z,3.17
